Aviation Digital Data Service (ADDS)

Output produced by METARs form (0213 UTC 19 October 2021)
found at http://www.aviationweather.gov/metar/data/
 
Forecast for: KBWI (BALTO/WASH INTL , MD, US)
Text: KBWI 182331Z 1900/2006 31004KT P6SM SKC
Forecast period: 0000 to 1400 UTC 19 October 2021
Forecast type: FROM: standard forecast or significant change
Winds: from the NW (310 degrees) at 5 MPH (4 knots; 2.1 m/s)
Visibility: 6 or more miles (10+ km)
Clouds: clear skies
Weather: no significant weather forecast for this period
Text: FM191400 28009KT P6SM SKC
Forecast period: 1400 UTC 19 October 2021 to 0000 UTC 20 October 2021
Forecast type: FROM: standard forecast or significant change
Winds: from the W (280 degrees) at 10 MPH (9 knots; 4.6 m/s)
Visibility: 6 or more miles (10+ km)
Clouds: clear skies
Weather: no significant weather forecast for this period
Text: FM200000 27004KT P6SM SKC
Forecast period: 0000 to 0600 UTC 20 October 2021
Forecast type: FROM: standard forecast or significant change
Winds: from the W (270 degrees) at 5 MPH (4 knots; 2.1 m/s)
Visibility: 6 or more miles (10+ km)
Clouds: clear skies
Weather: no significant weather forecast for this period